Time;durP1;ratioP1;P1;durP2;ratioP2;P2;SDS_P1;SDS_P2;PMS_P1;PMS_P2;Temp;Humidity;BMP_temperature;BMP_pressure;BME280_temperature;BME280_humidity;BME280_pressure;Samples;Min_cycle;Max_cycle;Signal;HPM_P1;HPM_P2
2023/09/07 00:01:23;;;;;;;2.85;2.38;;;22.70;56.00;;;;;;5015280;28;20412;-78
2023/09/07 00:03:49;;;;;;;2.80;2.45;;;22.70;56.10;;;;;;5014226;28;20052;-78
2023/09/07 00:06:15;;;;;;;4.00;2.95;;;22.70;56.00;;;;;;5015263;28;20453;-78
2023/09/07 00:08:40;;;;;;;3.30;2.70;;;22.70;56.10;;;;;;5015367;28;20029;-76
2023/09/07 00:11:07;;;;;;;3.80;2.90;;;22.60;56.20;;;;;;5014090;28;20029;-77
2023/09/07 00:13:33;;;;;;;3.72;2.70;;;22.60;56.30;;;;;;5015360;28;20034;-78
2023/09/07 00:16:03;;;;;;;2.67;2.28;;;22.60;56.40;;;;;;5021648;28;20025;-78
2023/09/07 00:18:32;;;;;;;2.65;2.35;;;22.70;56.40;;;;;;5033873;28;20430;-78
2023/09/07 00:20:59;;;;;;;2.47;2.10;;;22.70;56.30;;;;;;5034703;28;20034;-78
2023/09/07 00:23:25;;;;;;;3.33;2.60;;;22.70;56.30;;;;;;5032600;28;20030;-77
2023/09/07 00:25:51;;;;;;;3.05;2.30;;;22.70;56.10;;;;;;5021031;28;20075;-78
2023/09/07 00:28:16;;;;;;;2.67;2.35;;;22.80;56.20;;;;;;5015011;28;20061;-78
2023/09/07 00:30:42;;;;;;;2.97;2.45;;;22.80;56.30;;;;;;5014893;28;20065;-78
2023/09/07 00:33:08;;;;;;;2.97;2.53;;;22.80;56.30;;;;;;5014916;28;20152;-77
2023/09/07 00:35:35;;;;;;;2.88;2.42;;;22.80;56.30;;;;;;5015063;28;20022;-78
2023/09/07 00:38:00;;;;;;;3.28;2.60;;;22.90;56.30;;;;;;5012649;28;20369;-78
2023/09/07 00:40:26;;;;;;;2.83;2.30;;;22.90;56.30;;;;;;5030351;28;20111;-78
2023/09/07 00:42:52;;;;;;;3.63;2.30;;;22.90;56.80;;;;;;5019431;28;20033;-78
2023/09/07 00:45:18;;;;;;;3.72;2.65;;;22.90;56.20;;;;;;5034155;28;20471;-78
2023/09/07 00:47:44;;;;;;;3.28;2.63;;;22.90;56.30;;;;;;5033155;28;20112;-78
2023/09/07 00:50:13;;;;;;;3.50;2.70;;;22.80;56.30;;;;;;5033214;28;20037;-78
2023/09/07 00:52:42;;;;;;;3.55;2.70;;;22.80;56.50;;;;;;5028054;28;20018;-78
2023/09/07 00:55:08;;;;;;;7.10;3.00;;;22.70;56.60;;;;;;5014521;28;20414;-78
2023/09/07 00:57:34;;;;;;;6.32;2.60;;;22.70;56.70;;;;;;5012659;28;20041;-78
2023/09/07 01:00:00;;;;;;;2.90;2.60;;;22.70;56.80;;;;;;5013275;28;20042;-78
2023/09/07 01:02:26;;;;;;;3.30;2.70;;;22.60;56.80;;;;;;5014525;28;20083;-78
2023/09/07 01:04:52;;;;;;;2.72;2.40;;;22.70;56.80;;;;;;5014184;28;20483;-78
2023/09/07 01:07:23;;;;;;;2.85;2.20;;;22.80;56.90;;;;;;5014070;28;20033;-78
2023/09/07 01:09:55;;;;;;;3.25;2.60;;;22.80;56.80;;;;;;5013170;28;20032;-78
2023/09/07 01:12:21;;;;;;;3.00;2.40;;;22.80;56.70;;;;;;5019354;28;20048;-78
2023/09/07 01:14:47;;;;;;;3.15;2.70;;;22.80;56.70;;;;;;5033868;28;20463;-78
2023/09/07 01:17:13;;;;;;;4.20;2.63;;;22.90;56.80;;;;;;5032059;28;20104;-78
2023/09/07 01:19:39;;;;;;;3.30;2.58;;;22.90;56.80;;;;;;5032345;28;20471;-78
2023/09/07 01:22:08;;;;;;;3.22;2.72;;;22.90;56.80;;;;;;5033646;28;20036;-78
2023/09/07 01:24:35;;;;;;;4.53;2.90;;;22.90;56.70;;;;;;5032753;28;20056;-78
2023/09/07 01:27:03;;;;;;;3.78;2.85;;;23.00;56.80;;;;;;5032426;28;20030;-78
2023/09/07 01:29:29;;;;;;;3.60;3.05;;;22.90;56.70;;;;;;5033731;28;20448;-78
2023/09/07 01:31:56;;;;;;;4.05;2.80;;;22.90;56.70;;;;;;5033882;28;20435;-78
2023/09/07 01:34:22;;;;;;;4.40;2.83;;;22.80;56.80;;;;;;5021002;28;20054;-78
2023/09/07 01:36:48;;;;;;;4.93;3.20;;;22.80;56.80;;;;;;4996600;28;20026;-78
2023/09/07 01:39:13;;;;;;;4.20;3.20;;;22.80;56.90;;;;;;5013891;28;20021;-78
2023/09/07 01:41:39;;;;;;;4.00;3.20;;;22.70;57.00;;;;;;5012808;28;20037;-78
2023/09/07 01:44:05;;;;;;;4.03;3.00;;;22.60;57.00;;;;;;5014658;28;20029;-78
2023/09/07 01:46:30;;;;;;;4.10;3.10;;;22.60;57.10;;;;;;5014029;28;20030;-78
2023/09/07 01:48:56;;;;;;;4.78;3.20;;;22.60;57.20;;;;;;5013653;28;20033;-78
2023/09/07 01:51:22;;;;;;;4.70;3.30;;;22.50;57.20;;;;;;5017676;28;20065;-77
2023/09/07 01:53:51;;;;;;;3.92;3.00;;;22.50;57.30;;;;;;5016638;28;20021;-77
2023/09/07 01:56:17;;;;;;;3.67;3.13;;;22.50;57.40;;;;;;5017807;28;20373;-77
2023/09/07 01:58:42;;;;;;;4.30;2.85;;;22.40;57.50;;;;;;5017652;28;20018;-78
2023/09/07 02:01:29;;;;;;;4.38;2.97;;;22.40;57.50;;;;;;5016612;28;20034;-77
2023/09/07 02:03:55;;;;;;;4.05;3.20;;;22.40;57.80;;;;;;5016574;28;20486;-78
2023/09/07 02:06:20;;;;;;;3.10;2.70;;;22.40;57.70;;;;;;5016497;28;20053;-78
2023/09/07 02:08:46;;;;;;;3.33;2.83;;;22.40;57.70;;;;;;5017696;28;20030;-78
2023/09/07 02:11:12;;;;;;;4.18;3.47;;;22.40;57.70;;;;;;5017849;28;20033;-76
2023/09/07 02:13:37;;;;;;;3.78;2.95;;;22.40;57.70;;;;;;5034795;28;20039;-78
2023/09/07 02:16:05;;;;;;;4.05;2.90;;;22.40;57.80;;;;;;5035725;28;20036;-78
2023/09/07 02:18:32;;;;;;;3.92;2.85;;;22.40;57.80;;;;;;5028378;28;20109;-78
2023/09/07 02:21:05;;;;;;;4.80;3.03;;;22.40;57.80;;;;;;5016124;28;20100;-78
2023/09/07 02:23:32;;;;;;;3.10;2.80;;;22.40;57.90;;;;;;5017155;28;20041;-78
2023/09/07 02:25:58;;;;;;;4.82;2.72;;;22.40;57.90;;;;;;5017222;28;20141;-78
2023/09/07 02:28:24;;;;;;;4.25;3.17;;;22.40;58.00;;;;;;5016940;28;20519;-77
2023/09/07 02:30:50;;;;;;;3.33;2.70;;;22.40;58.00;;;;;;5015965;28;20021;-78
2023/09/07 02:33:16;;;;;;;3.92;2.72;;;22.40;58.00;;;;;;5032462;28;20061;-78
2023/09/07 02:35:41;;;;;;;4.20;2.90;;;22.40;58.10;;;;;;5028604;28;20033;-78
2023/09/07 02:38:07;;;;;;;3.63;2.88;;;22.40;58.10;;;;;;5018038;28;20022;-78
2023/09/07 02:40:33;;;;;;;3.90;3.00;;;22.50;58.10;;;;;;5017297;28;20044;-78
2023/09/07 02:42:58;;;;;;;3.58;3.00;;;22.50;58.20;;;;;;5016895;28;20080;-77
2023/09/07 02:45:24;;;;;;;3.45;2.83;;;22.50;58.20;;;;;;5016204;28;20065;-78
2023/09/07 02:47:50;;;;;;;2.95;2.63;;;22.50;58.20;;;;;;5015707;28;20057;-78
2023/09/07 02:50:17;;;;;;;3.33;2.55;;;22.50;58.80;;;;;;5015808;28;20026;-77
2023/09/07 02:52:43;;;;;;;3.35;2.65;;;22.50;58.20;;;;;;5015674;28;20034;-78
2023/09/07 02:55:09;;;;;;;3.00;2.60;;;22.50;58.20;;;;;;5016717;28;20056;-78
2023/09/07 02:57:35;;;;;;;3.53;2.67;;;22.50;58.20;;;;;;5016606;28;20025;-77
2023/09/07 03:00:08;;;;;;;3.08;2.78;;;22.50;58.20;;;;;;5016127;28;20076;-78
2023/09/07 03:02:34;;;;;;;2.95;2.65;;;22.50;58.20;;;;;;5016039;28;20030;-78
2023/09/07 03:05:00;;;;;;;3.08;2.58;;;22.50;58.30;;;;;;5026270;28;20453;-78
2023/09/07 03:07:26;;;;;;;3.00;2.70;;;22.50;58.30;;;;;;5036395;28;20036;-78
2023/09/07 03:09:52;;;;;;;2.95;2.50;;;22.50;58.30;;;;;;5036347;28;20025;-78
2023/09/07 03:12:18;;;;;;;3.17;2.58;;;22.50;58.30;;;;;;5034306;28;20029;-78
2023/09/07 03:14:44;;;;;;;3.88;2.53;;;22.50;58.30;;;;;;5036192;28;20075;-78
2023/09/07 03:17:10;;;;;;;3.33;2.50;;;22.60;58.30;;;;;;5025687;28;20029;-77
2023/09/07 03:19:37;;;;;;;2.88;2.47;;;22.60;58.30;;;;;;5036047;28;20036;-78
2023/09/07 03:22:03;;;;;;;2.53;2.30;;;22.60;58.30;;;;;;5035972;28;20029;-78
2023/09/07 03:24:29;;;;;;;3.30;2.50;;;22.60;58.30;;;;;;5035577;28;20163;-77
2023/09/07 03:26:54;;;;;;;2.25;2.05;;;22.60;58.40;;;;;;5035980;28;20507;-77
2023/09/07 03:29:20;;;;;;;4.18;2.25;;;22.70;58.50;;;;;;5034612;28;20025;-78
2023/09/07 03:31:46;;;;;;;3.15;2.40;;;22.60;58.40;;;;;;5035812;28;20097;-78
2023/09/07 03:34:11;;;;;;;2.53;2.33;;;22.60;58.50;;;;;;5023508;28;20393;-78
2023/09/07 03:36:37;;;;;;;3.47;2.35;;;22.60;58.60;;;;;;5014594;28;20519;-78
2023/09/07 03:39:03;;;;;;;3.17;2.40;;;22.60;58.50;;;;;;5015801;28;20025;-78
2023/09/07 03:41:30;;;;;;;3.38;2.60;;;22.60;58.60;;;;;;5014307;28;20113;-77
2023/09/07 03:43:56;;;;;;;3.28;2.40;;;22.60;58.60;;;;;;5015865;28;20120;-78
2023/09/07 03:46:22;;;;;;;2.60;2.40;;;22.60;58.60;;;;;;5015543;28;20443;-78
2023/09/07 03:48:47;;;;;;;3.03;2.50;;;22.60;58.60;;;;;;5015854;28;20026;-77
2023/09/07 03:51:13;;;;;;;3.05;2.63;;;22.60;58.70;;;;;;5015686;28;20033;-78
2023/09/07 03:53:39;;;;;;;4.35;2.50;;;22.60;58.70;;;;;;5015687;28;20132;-76
2023/09/07 03:56:05;;;;;;;3.10;2.40;;;22.60;58.70;;;;;;5017543;28;20484;-78
2023/09/07 03:58:31;;;;;;;2.67;2.40;;;22.60;58.70;;;;;;5034662;28;20407;-79
2023/09/07 04:00:59;;;;;;;2.60;2.40;;;22.60;58.70;;;;;;5035665;28;20056;-78
2023/09/07 04:03:25;;;;;;;2.50;2.30;;;22.60;58.80;;;;;;5019707;28;20434;-78
2023/09/07 04:05:51;;;;;;;2.97;2.20;;;22.60;58.80;;;;;;5015208;28;20087;-78
2023/09/07 04:08:17;;;;;;;4.03;2.03;;;22.60;59.30;;;;;;5015426;28;20036;-78
2023/09/07 04:10:42;;;;;;;2.22;2.05;;;22.70;58.80;;;;;;5015198;28;20105;-76
2023/09/07 04:13:08;;;;;;;2.50;2.28;;;22.70;58.80;;;;;;5014735;28;20030;-78
2023/09/07 04:15:41;;;;;;;2.55;2.35;;;22.80;58.80;;;;;;5014029;28;20119;-78
2023/09/07 04:18:06;;;;;;;2.70;2.35;;;22.80;58.80;;;;;;5014998;28;20026;-78
2023/09/07 04:20:32;;;;;;;2.80;2.55;;;22.80;58.70;;;;;;5014983;28;20033;-78
2023/09/07 04:22:57;;;;;;;2.40;2.20;;;22.80;58.60;;;;;;5014718;28;20036;-77
2023/09/07 04:25:23;;;;;;;2.55;2.35;;;22.90;58.60;;;;;;5014925;28;20041;-77
2023/09/07 04:27:49;;;;;;;2.40;2.20;;;22.80;58.50;;;;;;5014758;28;20034;-78
2023/09/07 04:30:14;;;;;;;2.42;2.22;;;22.80;58.60;;;;;;5014940;28;20026;-78
2023/09/07 04:32:40;;;;;;;2.50;2.30;;;22.80;58.60;;;;;;5030256;28;20045;-78
2023/09/07 04:35:07;;;;;;;2.15;1.92;;;22.70;58.60;;;;;;5034726;28;20128;-78
2023/09/07 04:37:32;;;;;;;2.63;2.10;;;22.70;58.60;;;;;;5034024;28;20155;-79
2023/09/07 04:39:58;;;;;;;2.50;2.20;;;22.70;58.70;;;;;;5034751;28;20041;-79
2023/09/07 04:42:23;;;;;;;4.07;2.60;;;22.70;58.70;;;;;;5034598;28;20459;-78
2023/09/07 04:44:49;;;;;;;2.30;2.10;;;22.70;58.70;;;;;;5034545;28;20033;-78
2023/09/07 04:47:17;;;;;;;2.38;1.85;;;22.70;58.70;;;;;;5034464;28;20067;-79
2023/09/07 04:49:49;;;;;;;2.30;2.10;;;22.70;58.70;;;;;;5033029;28;20033;-79
2023/09/07 04:52:15;;;;;;;2.20;1.88;;;22.70;58.70;;;;;;5034027;28;20072;-79
2023/09/07 04:54:40;;;;;;;2.47;2.28;;;22.70;58.70;;;;;;5033049;28;20025;-79
2023/09/07 04:57:06;;;;;;;2.85;2.10;;;22.70;58.80;;;;;;5034318;28;20048;-78
2023/09/07 04:59:32;;;;;;;3.17;2.70;;;22.70;58.80;;;;;;5033972;28;20033;-78
2023/09/07 05:02:01;;;;;;;2.55;2.30;;;22.60;58.70;;;;;;5014231;28;20045;-79
2023/09/07 05:04:27;;;;;;;2.42;2.08;;;22.50;58.90;;;;;;5012928;28;20032;-78
2023/09/07 05:06:53;;;;;;;2.33;2.05;;;22.50;59.00;;;;;;5012855;28;20030;-80
2023/09/07 05:09:20;;;;;;;2.63;2.30;;;22.50;59.70;;;;;;5013878;28;20159;-79
2023/09/07 05:11:45;;;;;;;3.72;2.40;;;22.40;59.10;;;;;;5014110;28;20026;-79
2023/09/07 05:14:11;;;;;;;3.05;2.50;;;22.30;59.20;;;;;;5013981;28;20026;-79
2023/09/07 05:16:37;;;;;;;2.50;2.30;;;22.30;59.40;;;;;;5014027;28;20460;-78
2023/09/07 05:19:03;;;;;;;2.65;2.45;;;22.20;59.40;;;;;;5013931;28;20029;-79
2023/09/07 05:21:28;;;;;;;2.70;2.30;;;22.20;59.50;;;;;;5013911;28;20018;-78
2023/09/07 05:23:54;;;;;;;2.65;2.30;;;22.10;59.60;;;;;;5013895;28;20034;-78
2023/09/07 05:26:24;;;;;;;2.72;2.30;;;22.10;59.70;;;;;;5014162;28;20036;-79
2023/09/07 05:28:50;;;;;;;2.50;2.30;;;22.10;59.80;;;;;;5014493;28;20049;-78
2023/09/07 05:31:15;;;;;;;2.45;2.25;;;22.00;59.90;;;;;;5033420;28;20033;-79
2023/09/07 05:33:41;;;;;;;3.20;2.55;;;22.00;60.00;;;;;;5033484;28;20057;-78
2023/09/07 05:36:08;;;;;;;2.45;2.25;;;22.00;60.10;;;;;;5033472;28;20056;-78
2023/09/07 05:38:34;;;;;;;4.80;2.20;;;22.00;60.00;;;;;;5033336;28;20030;-78
2023/09/07 05:41:00;;;;;;;2.03;1.88;;;22.00;60.00;;;;;;5032672;28;20029;-76
2023/09/07 05:43:25;;;;;;;2.53;2.10;;;22.10;60.10;;;;;;5033555;28;20052;-80
2023/09/07 05:45:51;;;;;;;2.20;2.00;;;22.10;60.00;;;;;;5032563;28;20026;-78
2023/09/07 05:48:17;;;;;;;2.40;2.05;;;22.20;60.00;;;;;;5032018;28;20032;-75
2023/09/07 05:50:42;;;;;;;2.92;2.20;;;22.20;59.90;;;;;;5033470;28;20100;-80
2023/09/07 05:53:08;;;;;;;2.85;2.17;;;22.10;60.00;;;;;;5033489;28;20049;-77
2023/09/07 05:55:34;;;;;;;3.33;2.30;;;22.10;60.00;;;;;;5033151;28;20468;-79
2023/09/07 05:58:03;;;;;;;3.67;2.30;;;22.20;60.00;;;;;;5024299;28;20029;-79
2023/09/07 06:00:29;;;;;;;2.78;2.47;;;22.20;60.00;;;;;;5043205;28;20029;-77
2023/09/07 06:02:55;;;;;;;2.35;2.15;;;22.20;59.90;;;;;;5040487;28;20040;-77
2023/09/07 06:05:21;;;;;;;4.13;2.20;;;22.20;59.90;;;;;;5042262;28;20041;-77
2023/09/07 06:07:47;;;;;;;2.50;2.30;;;22.20;59.90;;;;;;5043625;28;20032;-79
2023/09/07 06:10:12;;;;;;;2.80;2.20;;;22.20;60.00;;;;;;5041587;28;20083;-78
2023/09/07 06:12:38;;;;;;;2.53;2.33;;;22.20;60.00;;;;;;5043560;28;20017;-79
2023/09/07 06:15:04;;;;;;;3.25;2.30;;;22.10;60.10;;;;;;5043362;28;20041;-79
2023/09/07 06:17:30;;;;;;;2.42;2.13;;;22.10;60.10;;;;;;5040560;28;20075;-78
2023/09/07 06:19:56;;;;;;;2.55;2.30;;;22.20;60.10;;;;;;5043681;28;20478;-79
2023/09/07 06:22:22;;;;;;;2.78;2.50;;;22.10;60.10;;;;;;5041813;28;20029;-77
2023/09/07 06:24:48;;;;;;;2.83;2.45;;;22.20;60.20;;;;;;5041755;28;20052;-78
2023/09/07 06:27:14;;;;;;;1.95;1.77;;;22.20;60.30;;;;;;5041354;28;20519;-78
2023/09/07 06:29:39;;;;;;;2.20;2.00;;;22.20;60.20;;;;;;5043371;28;20105;-79
2023/09/07 06:32:05;;;;;;;2.67;2.00;;;22.30;60.20;;;;;;5042280;28;20025;-78
2023/09/07 06:34:31;;;;;;;1.92;1.83;;;22.30;60.10;;;;;;5041837;28;20053;-79
2023/09/07 06:36:56;;;;;;;2.67;2.33;;;22.40;60.10;;;;;;5042948;28;20021;-78
2023/09/07 06:39:22;;;;;;;2.22;2.03;;;22.40;60.00;;;;;;5048027;28;20032;-79
2023/09/07 06:41:48;;;;;;;2.30;2.10;;;22.40;60.00;;;;;;5046087;28;20048;-79
2023/09/07 06:44:14;;;;;;;2.20;2.00;;;22.50;59.90;;;;;;5047038;28;20025;-78
2023/09/07 06:46:40;;;;;;;2.40;2.00;;;22.50;60.00;;;;;;5045235;28;20036;-78
2023/09/07 06:49:07;;;;;;;3.00;2.10;;;22.50;60.00;;;;;;5044571;28;20060;-78
2023/09/07 06:51:33;;;;;;;2.00;1.80;;;22.60;59.90;;;;;;5045371;28;20044;-78
2023/09/07 06:53:59;;;;;;;1.92;1.80;;;22.60;59.90;;;;;;5040417;28;20029;-77
2023/09/07 06:56:26;;;;;;;2.20;2.00;;;22.70;60.40;;;;;;5041996;28;20037;-77
2023/09/07 06:58:52;;;;;;;2.45;2.25;;;22.70;59.80;;;;;;5040797;28;20029;-76
2023/09/07 07:01:18;;;;;;;2.47;2.10;;;22.80;59.70;;;;;;5042054;28;20025;-78
2023/09/07 07:03:44;;;;;;;2.30;1.90;;;22.80;59.70;;;;;;5044178;28;20043;-81
2023/09/07 07:06:09;;;;;;;2.75;2.13;;;22.90;59.60;;;;;;5046711;28;20104;-71
2023/09/07 07:08:35;;;;;;;3.42;2.00;;;22.90;59.60;;;;;;5044565;28;20029;-76
2023/09/07 07:11:00;;;;;;;2.45;2.17;;;22.90;59.50;;;;;;5045054;28;20466;-75
2023/09/07 07:13:26;;;;;;;2.55;2.22;;;22.90;59.60;;;;;;5043640;28;20463;-74
2023/09/07 07:15:52;;;;;;;2.50;2.10;;;22.90;60.30;;;;;;5016191;28;20464;-73
2023/09/07 07:18:18;;;;;;;2.10;1.90;;;22.90;59.80;;;;;;5034512;28;20041;-73
2023/09/07 07:20:44;;;;;;;2.25;2.00;;;22.90;59.70;;;;;;5021438;28;20026;-73
2023/09/07 07:23:10;;;;;;;2.85;2.00;;;23.00;59.80;;;;;;5023297;28;20113;-72
2023/09/07 07:25:37;;;;;;;2.67;1.80;;;23.00;59.80;;;;;;5034509;28;20387;-73
2023/09/07 07:28:06;;;;;;;2.55;2.10;;;23.10;60.40;;;;;;5042402;28;20029;-72
2023/09/07 07:30:36;;;;;;;2.17;1.98;;;23.10;59.50;;;;;;5037338;28;20356;-75
2023/09/07 07:33:06;;;;;;;3.17;2.05;;;23.10;59.40;;;;;;5043849;28;21400;-74
2023/09/07 07:35:51;;;;;;;5.45;3.75;;;23.20;59.60;;;;;;5045527;28;20057;-71
2023/09/07 07:38:17;;;;;;;2.30;2.08;;;23.30;59.60;;;;;;5044566;28;20037;-70
2023/09/07 07:40:43;;;;;;;5.07;4.30;;;23.30;59.40;;;;;;5039458;28;20037;-71
2023/09/07 07:43:10;;;;;;;4.00;2.72;;;23.30;59.30;;;;;;5044366;28;20423;-70
2023/09/07 07:45:38;;;;;;;2.25;2.05;;;23.30;59.30;;;;;;5048461;28;20407;-70
2023/09/07 07:48:05;;;;;;;4.72;2.20;;;23.30;59.10;;;;;;5044066;28;20075;-69
2023/09/07 07:50:31;;;;;;;2.70;2.17;;;23.40;59.00;;;;;;5046436;28;20030;-70
2023/09/07 07:52:57;;;;;;;31.75;27.08;;;23.40;59.10;;;;;;5043403;28;20139;-71
2023/09/07 07:55:22;;;;;;;4.63;2.35;;;23.40;59.10;;;;;;5043618;28;20060;-71
2023/09/07 07:57:48;;;;;;;2.15;2.00;;;23.50;59.20;;;;;;5045306;28;20047;-73
2023/09/07 08:00:14;;;;;;;2.55;1.90;;;23.50;59.10;;;;;;5044503;28;20067;-73
2023/09/07 08:02:40;;;;;;;2.05;1.80;;;23.60;59.10;;;;;;5045701;28;20025;-73
2023/09/07 08:05:05;;;;;;;1.83;1.73;;;23.70;59.00;;;;;;5045628;28;20531;-73
2023/09/07 08:07:31;;;;;;;1.90;1.70;;;23.70;58.80;;;;;;5044892;28;20025;-73
2023/09/07 08:09:57;;;;;;;2.80;1.63;;;23.80;58.80;;;;;;5014902;28;20026;-72
2023/09/07 08:12:23;;;;;;;1.60;1.50;;;23.80;58.60;;;;;;5038730;28;20113;-74
2023/09/07 08:14:48;;;;;;;1.70;1.60;;;23.90;58.50;;;;;;5038857;28;20029;-74
2023/09/07 08:17:14;;;;;;;1.80;1.70;;;23.90;58.20;;;;;;5026609;28;20028;-77
2023/09/07 08:19:39;;;;;;;1.63;1.52;;;23.90;58.10;;;;;;5035958;28;20108;-78
2023/09/07 08:22:06;;;;;;;1.77;1.67;;;23.90;58.00;;;;;;5033346;28;20026;-72
2023/09/07 08:24:32;;;;;;;3.60;1.50;;;23.90;57.80;;;;;;5032514;28;20493;-72
2023/09/07 08:26:59;;;;;;;1.70;1.55;;;23.90;57.90;;;;;;5034786;28;20105;-72
2023/09/07 08:29:26;;;;;;;4.30;1.60;;;23.90;57.90;;;;;;5040688;28;20029;-69
2023/09/07 08:31:53;;;;;;;2.45;1.80;;;23.90;57.70;;;;;;5014818;28;20036;-72
2023/09/07 08:34:20;;;;;;;2.08;1.88;;;24.00;57.70;;;;;;5014722;28;20042;-71
2023/09/07 08:36:46;;;;;;;29.92;26.88;;;24.00;57.30;;;;;;5016648;28;20033;-71
2023/09/07 08:39:13;;;;;;;1.58;1.48;;;24.00;57.30;;;;;;5036678;28;20036;-71
2023/09/07 08:41:46;;;;;;;2.03;1.88;;;24.00;57.30;;;;;;5032613;28;20077;-71
2023/09/07 08:44:20;;;;;;;2.38;1.65;;;24.00;57.00;;;;;;5021238;28;20034;-70
2023/09/07 08:46:49;;;;;;;2.47;1.33;;;24.00;57.00;;;;;;5022086;28;20463;-70
2023/09/07 08:49:19;;;;;;;1.75;1.50;;;24.00;57.00;;;;;;5023813;28;20120;-69
2023/09/07 08:51:45;;;;;;;2.33;1.50;;;24.00;56.80;;;;;;5017378;28;20399;-71
2023/09/07 08:54:12;;;;;;;2.05;1.77;;;24.00;56.70;;;;;;5022125;28;20481;-71
2023/09/07 08:56:38;;;;;;;2.05;1.42;;;24.00;56.80;;;;;;5034194;28;20030;-71
2023/09/07 08:59:04;;;;;;;3.70;1.40;;;24.00;56.80;;;;;;5021128;28;20092;-71
2023/09/07 09:01:33;;;;;;;1.60;1.42;;;24.10;56.70;;;;;;5018017;28;20033;-73
2023/09/07 09:03:59;;;;;;;1.85;1.40;;;24.10;56.60;;;;;;5013824;28;20515;-72
2023/09/07 09:06:25;;;;;;;1.38;1.27;;;24.10;56.40;;;;;;5016888;28;20117;-73
2023/09/07 09:08:50;;;;;;;1.80;1.30;;;24.20;56.40;;;;;;5025728;28;20026;-69
2023/09/07 09:11:17;;;;;;;1.50;1.27;;;24.20;56.30;;;;;;5027122;28;20036;-69
2023/09/07 09:13:43;;;;;;;1.40;1.23;;;24.20;56.00;;;;;;5029278;28;20034;-70
2023/09/07 09:16:10;;;;;;;2.75;1.30;;;24.20;56.00;;;;;;5036703;28;20475;-71
2023/09/07 09:18:36;;;;;;;2.67;1.20;;;24.30;56.00;;;;;;5033083;28;20034;-71
2023/09/07 09:21:02;;;;;;;1.38;1.27;;;24.30;55.90;;;;;;5032735;28;20116;-71
2023/09/07 09:23:34;;;;;;;1.45;1.33;;;24.30;55.70;;;;;;5024807;28;20091;-69
2023/09/07 09:26:01;;;;;;;2.80;1.40;;;24.40;55.80;;;;;;5015523;28;20081;-72
2023/09/07 09:28:31;;;;;;;2.03;1.40;;;24.30;55.50;;;;;;5013293;28;20468;-71
2023/09/07 09:30:58;;;;;;;2.03;1.40;;;24.30;55.40;;;;;;5029587;28;20025;-70
2023/09/07 09:33:23;;;;;;;2.50;1.42;;;24.30;55.50;;;;;;5032654;28;20120;-71
2023/09/07 09:35:50;;;;;;;1.45;1.35;;;24.30;55.20;;;;;;5013482;28;20042;-74
2023/09/07 09:38:17;;;;;;;2.67;1.17;;;24.30;55.00;;;;;;5013825;28;20033;-74
2023/09/07 09:40:43;;;;;;;2.53;1.30;;;24.30;54.80;;;;;;5014956;28;20030;-73
2023/09/07 09:43:09;;;;;;;1.83;1.73;;;24.30;54.60;;;;;;5020289;28;20519;-74
2023/09/07 09:45:35;;;;;;;3.08;1.55;;;24.30;54.40;;;;;;5034872;28;20029;-77
2023/09/07 09:48:03;;;;;;;1.65;1.50;;;24.30;54.30;;;;;;5041429;28;20417;-74
2023/09/07 09:50:29;;;;;;;1.40;1.30;;;24.20;54.20;;;;;;5041973;28;20101;-75
2023/09/07 09:52:56;;;;;;;1.30;1.20;;;24.30;54.30;;;;;;5039325;28;20060;-75
2023/09/07 09:55:22;;;;;;;1.35;1.20;;;24.30;54.10;;;;;;5043134;28;20040;-75
2023/09/07 09:57:48;;;;;;;1.52;1.42;;;24.40;54.10;;;;;;5041666;28;20472;-75
2023/09/07 10:02:45;;;;;;;1.83;1.50;;;24.40;53.50;;;;;;5043195;28;20060;-75
2023/09/07 10:05:13;;;;;;;2.30;1.35;;;24.40;53.10;;;;;;5042308;28;20129;-76
2023/09/07 10:07:43;;;;;;;1.58;1.48;;;24.40;53.20;;;;;;5039527;28;20018;-76
2023/09/07 10:10:14;;;;;;;1.33;1.27;;;24.40;53.10;;;;;;5041519;28;20021;-77
2023/09/07 10:12:41;;;;;;;1.35;1.25;;;24.40;53.00;;;;;;5040252;28;20121;-73
2023/09/07 10:15:19;;;;;;;1.20;1.15;;;24.50;53.10;;;;;;5043922;28;20340;-77
2023/09/07 10:17:46;;;;;;;1.40;1.30;;;24.50;53.60;;;;;;5043758;28;20052;-77
2023/09/07 10:20:12;;;;;;;1.52;1.42;;;24.50;52.70;;;;;;5047575;28;20013;-75
2023/09/07 10:22:38;;;;;;;1.40;1.30;;;24.50;52.00;;;;;;5041706;28;20028;-76
2023/09/07 10:25:04;;;;;;;1.30;1.20;;;24.50;51.90;;;;;;5046649;28;20021;-76
2023/09/07 10:27:38;;;;;;;1.27;1.17;;;24.50;51.90;;;;;;5046928;28;20038;-75
2023/09/07 10:30:10;;;;;;;1.58;1.48;;;24.60;51.70;;;;;;5041868;28;20052;-75
2023/09/07 10:32:42;;;;;;;1.27;1.17;;;24.60;51.60;;;;;;5046239;28;20033;-75
2023/09/07 10:35:21;;;;;;;1.15;1.15;;;24.60;51.50;;;;;;5045828;28;20499;-75
2023/09/07 10:37:48;;;;;;;1.08;1.02;;;24.70;51.20;;;;;;5046607;28;20029;-75
2023/09/07 10:40:19;;;;;;;1.77;1.15;;;24.70;51.20;;;;;;5044449;28;20018;-76
2023/09/07 10:42:45;;;;;;;2.08;1.20;;;24.70;51.20;;;;;;5045169;28;20030;-73
2023/09/07 10:45:16;;;;;;;2.70;1.08;;;24.70;51.00;;;;;;5045031;28;20036;-75
2023/09/07 10:47:46;;;;;;;1.15;1.05;;;24.70;50.70;;;;;;5038467;28;20486;-75
2023/09/07 10:50:13;;;;;;;1.40;1.30;;;24.70;50.30;;;;;;5042382;28;20104;-75
2023/09/07 10:52:42;;;;;;;1.33;1.00;;;24.70;50.40;;;;;;5041479;28;20026;-75
2023/09/07 10:55:10;;;;;;;1.05;1.02;;;24.70;50.20;;;;;;5041085;28;20110;-73
2023/09/07 10:57:47;;;;;;;1.20;1.10;;;24.70;50.00;;;;;;5045669;28;20475;-76
2023/09/07 11:00:14;;;;;;;1.23;1.10;;;24.70;49.90;;;;;;5047093;28;20029;-74
2023/09/07 11:02:40;;;;;;;1.30;1.20;;;24.80;49.90;;;;;;5033925;28;20422;-75
2023/09/07 11:05:07;;;;;;;1.08;1.08;;;24.80;49.50;;;;;;5042422;28;20098;-77
2023/09/07 11:07:33;;;;;;;1.33;1.23;;;24.80;49.50;;;;;;5045468;28;20479;-76
2023/09/07 11:09:59;;;;;;;0.90;0.90;;;24.80;49.30;;;;;;5037538;28;20055;-75
2023/09/07 11:12:25;;;;;;;1.52;1.25;;;24.80;49.30;;;;;;5040914;28;20083;-75
2023/09/07 11:14:52;;;;;;;5.82;5.05;;;24.80;49.30;;;;;;5042006;28;20515;-76
2023/09/07 11:17:17;;;;;;;2.15;1.13;;;24.80;49.10;;;;;;5041283;28;20426;-77
2023/09/07 11:19:43;;;;;;;0.95;0.95;;;24.90;49.10;;;;;;5041907;28;20025;-77
2023/09/07 11:22:13;;;;;;;1.38;1.15;;;24.90;48.90;;;;;;5038512;28;20021;-77
2023/09/07 11:24:40;;;;;;;1.40;1.30;;;24.90;48.70;;;;;;5038887;28;20038;-75
2023/09/07 11:27:05;;;;;;;1.23;1.13;;;24.90;48.50;;;;;;5039678;28;20040;-74
2023/09/07 11:29:32;;;;;;;2.65;1.08;;;24.90;48.50;;;;;;5040210;28;20124;-73
2023/09/07 11:32:08;;;;;;;1.38;1.00;;;24.90;48.50;;;;;;5035103;28;20475;-71
2023/09/07 11:34:34;;;;;;;1.25;1.13;;;24.90;48.20;;;;;;5027279;28;20054;-74
2023/09/07 11:37:03;;;;;;;1.20;1.10;;;25.00;48.30;;;;;;5030087;28;20030;-73
2023/09/07 11:39:28;;;;;;;1.08;1.00;;;25.10;48.20;;;;;;5026187;28;20079;-74
2023/09/07 11:41:54;;;;;;;1.17;0.90;;;25.10;48.00;;;;;;5042278;28;20026;-70
2023/09/07 11:44:20;;;;;;;3.53;1.20;;;25.10;47.80;;;;;;5038419;28;20395;-73
2023/09/07 11:46:46;;;;;;;0.90;0.90;;;25.10;47.60;;;;;;5039983;28;20430;-74
2023/09/07 11:49:12;;;;;;;1.70;1.02;;;25.10;47.60;;;;;;5042276;28;20034;-73
2023/09/07 11:51:39;;;;;;;2.88;1.48;;;25.10;47.20;;;;;;5038085;28;20371;-73
2023/09/07 11:54:04;;;;;;;1.35;1.13;;;25.10;47.10;;;;;;5040434;28;20037;-73
2023/09/07 11:56:30;;;;;;;1.90;1.10;;;25.10;46.80;;;;;;5037049;28;20033;-71
2023/09/07 11:58:57;;;;;;;2.17;1.33;;;25.00;46.80;;;;;;5043338;28;20104;-71
2023/09/07 12:01:22;;;;;;;2.63;1.25;;;25.00;46.70;;;;;;5036278;28;20029;-69
2023/09/07 12:03:48;;;;;;;1.10;1.10;;;25.00;46.00;;;;;;5025428;28;20100;-72
2023/09/07 12:06:14;;;;;;;1.08;0.95;;;25.00;46.10;;;;;;5013989;28;20026;-71
2023/09/07 12:08:57;;;;;;;1.02;0.93;;;25.00;46.10;;;;;;5026014;28;20022;-70
2023/09/07 12:11:23;;;;;;;4.20;1.10;;;25.00;45.90;;;;;;5029927;28;20467;-71
2023/09/07 12:13:48;;;;;;;1.55;1.10;;;25.00;45.70;;;;;;5014980;28;20041;-71
2023/09/07 12:16:14;;;;;;;1.88;1.00;;;25.00;45.20;;;;;;5014966;28;20033;-71
2023/09/07 12:18:40;;;;;;;1.42;1.33;;;25.00;45.00;;;;;;5009465;28;20036;-74
2023/09/07 12:21:06;;;;;;;0.88;0.88;;;25.00;44.70;;;;;;5035228;28;20108;-74
2023/09/07 12:23:31;;;;;;;0.70;0.70;;;25.10;44.80;;;;;;5032833;28;20116;-76
2023/09/07 12:25:57;;;;;;;1.08;1.00;;;25.10;44.90;;;;;;5019417;28;20029;-75
2023/09/07 12:28:22;;;;;;;1.00;0.88;;;25.10;44.60;;;;;;5033563;28;20036;-75
2023/09/07 12:30:48;;;;;;;1.02;0.93;;;25.10;44.40;;;;;;5027673;28;20032;-76
2023/09/07 12:33:14;;;;;;;2.03;0.80;;;25.10;44.10;;;;;;5021541;28;20456;-73
2023/09/07 12:35:40;;;;;;;1.38;0.90;;;25.20;43.70;;;;;;5015215;28;20034;-72
2023/09/07 12:38:07;;;;;;;1.20;1.10;;;25.20;43.80;;;;;;5019768;28;20021;-71
2023/09/07 12:40:32;;;;;;;1.38;0.93;;;25.20;43.40;;;;;;5026361;28;20045;-72
2023/09/07 12:42:58;;;;;;;1.02;0.90;;;25.20;43.60;;;;;;5026043;28;20060;-73
2023/09/07 12:45:24;;;;;;;1.98;0.90;;;25.30;43.60;;;;;;5033857;28;20030;-74